sensor_id;sensor_type;location;lat;lon;timestamp;pressure;altitude;pressure_sealevel;temperature;humidity
18858;BME280;9558;50.178;8.370;2022-07-06T00:01:33;98929.56;;;16.37;69.35
18858;BME280;9558;50.178;8.370;2022-07-06T00:04:00;98932.19;;;16.37;68.40
18858;BME280;9558;50.178;8.370;2022-07-06T00:06:27;98931.38;;;16.36;69.60
18858;BME280;9558;50.178;8.370;2022-07-06T00:08:54;98927.16;;;16.35;68.19
18858;BME280;9558;50.178;8.370;2022-07-06T00:11:20;98931.59;;;16.35;68.49
18858;BME280;9558;50.178;8.370;2022-07-06T00:13:49;98933.97;;;16.30;68.68
18858;BME280;9558;50.178;8.370;2022-07-06T00:16:16;98942.38;;;16.25;69.53
18858;BME280;9558;50.178;8.370;2022-07-06T00:18:42;98941.94;;;16.21;69.79
18858;BME280;9558;50.178;8.370;2022-07-06T00:21:09;98940.72;;;16.17;69.63
18858;BME280;9558;50.178;8.370;2022-07-06T00:23:36;98929.84;;;16.14;70.21
18858;BME280;9558;50.178;8.370;2022-07-06T00:26:02;98930.25;;;16.11;71.14
18858;BME280;9558;50.178;8.370;2022-07-06T00:28:29;98932.22;;;16.09;69.94
18858;BME280;9558;50.178;8.370;2022-07-06T00:30:57;98927.78;;;16.02;70.64
18858;BME280;9558;50.178;8.370;2022-07-06T00:33:23;98925.97;;;16.03;69.90
18858;BME280;9558;50.178;8.370;2022-07-06T00:35:50;98925.56;;;15.99;71.16
18858;BME280;9558;50.178;8.370;2022-07-06T00:38:16;98918.31;;;15.95;70.30
18858;BME280;9558;50.178;8.370;2022-07-06T00:40:43;98922.69;;;15.94;70.96
18858;BME280;9558;50.178;8.370;2022-07-06T00:43:10;98934.50;;;15.90;70.04
18858;BME280;9558;50.178;8.370;2022-07-06T00:45:36;98932.94;;;15.89;70.87
18858;BME280;9558;50.178;8.370;2022-07-06T00:48:05;98940.75;;;15.89;70.29
18858;BME280;9558;50.178;8.370;2022-07-06T00:50:33;98936.53;;;15.88;70.65
18858;BME280;9558;50.178;8.370;2022-07-06T00:53:01;98935.28;;;15.84;71.56
18858;BME280;9558;50.178;8.370;2022-07-06T00:55:29;98936.38;;;15.75;71.91
18858;BME280;9558;50.178;8.370;2022-07-06T00:57:57;98940.38;;;15.70;71.63
18858;BME280;9558;50.178;8.370;2022-07-06T01:00:25;98934.66;;;15.60;72.28
18858;BME280;9558;50.178;8.370;2022-07-06T01:02:53;98933.81;;;15.53;72.42
18858;BME280;9558;50.178;8.370;2022-07-06T01:05:21;98925.13;;;15.46;71.73
18858;BME280;9558;50.178;8.370;2022-07-06T01:07:49;98930.31;;;15.39;71.98
18858;BME280;9558;50.178;8.370;2022-07-06T01:10:17;98931.03;;;15.33;73.56
18858;BME280;9558;50.178;8.370;2022-07-06T01:12:45;98925.13;;;15.24;72.50
18858;BME280;9558;50.178;8.370;2022-07-06T01:15:15;98932.09;;;15.17;74.54
18858;BME280;9558;50.178;8.370;2022-07-06T01:17:43;98928.63;;;15.10;72.98
18858;BME280;9558;50.178;8.370;2022-07-06T01:20:12;98934.56;;;15.03;73.20
18858;BME280;9558;50.178;8.370;2022-07-06T01:22:38;98926.88;;;14.95;73.18
18858;BME280;9558;50.178;8.370;2022-07-06T01:25:06;98936.03;;;14.91;73.42
18858;BME280;9558;50.178;8.370;2022-07-06T01:27:34;98931.75;;;14.83;74.40
18858;BME280;9558;50.178;8.370;2022-07-06T01:30:04;98934.66;;;14.74;74.41
18858;BME280;9558;50.178;8.370;2022-07-06T01:32:31;98935.41;;;14.67;74.49
18858;BME280;9558;50.178;8.370;2022-07-06T01:34:58;98931.22;;;14.58;74.76
18858;BME280;9558;50.178;8.370;2022-07-06T01:37:26;98928.09;;;14.48;74.99
18858;BME280;9558;50.178;8.370;2022-07-06T01:39:52;98928.19;;;14.40;78.82
18858;BME280;9558;50.178;8.370;2022-07-06T01:42:19;98931.91;;;14.30;77.58
18858;BME280;9558;50.178;8.370;2022-07-06T01:44:45;98940.41;;;14.24;77.14
18858;BME280;9558;50.178;8.370;2022-07-06T01:47:12;98933.94;;;14.20;76.75
18858;BME280;9558;50.178;8.370;2022-07-06T01:49:38;98932.25;;;14.12;77.04
18858;BME280;9558;50.178;8.370;2022-07-06T01:52:05;98923.72;;;14.04;77.72
18858;BME280;9558;50.178;8.370;2022-07-06T01:54:33;98924.25;;;13.99;78.23
18858;BME280;9558;50.178;8.370;2022-07-06T01:56:59;98926.75;;;13.92;78.44
18858;BME280;9558;50.178;8.370;2022-07-06T01:59:26;98919.50;;;13.88;79.18
18858;BME280;9558;50.178;8.370;2022-07-06T02:01:52;98932.38;;;13.81;78.34
18858;BME280;9558;50.178;8.370;2022-07-06T02:04:19;98939.09;;;13.75;78.75
18858;BME280;9558;50.178;8.370;2022-07-06T02:06:45;98938.03;;;13.70;78.28
18858;BME280;9558;50.178;8.370;2022-07-06T02:09:12;98936.75;;;13.65;82.21
18858;BME280;9558;50.178;8.370;2022-07-06T02:11:40;98936.50;;;13.60;79.03
18858;BME280;9558;50.178;8.370;2022-07-06T02:14:06;98942.19;;;13.56;80.18
18858;BME280;9558;50.178;8.370;2022-07-06T02:16:33;98939.94;;;13.53;80.28
18858;BME280;9558;50.178;8.370;2022-07-06T02:18:59;98945.19;;;13.44;80.39
18858;BME280;9558;50.178;8.370;2022-07-06T02:21:26;98941.97;;;13.42;80.97
18858;BME280;9558;50.178;8.370;2022-07-06T02:23:53;98939.56;;;13.41;81.80
18858;BME280;9558;50.178;8.370;2022-07-06T02:26:19;98941.69;;;13.37;82.77
18858;BME280;9558;50.178;8.370;2022-07-06T02:28:47;98934.72;;;13.38;80.78
18858;BME280;9558;50.178;8.370;2022-07-06T02:31:14;98930.81;;;13.34;84.39
18858;BME280;9558;50.178;8.370;2022-07-06T02:33:40;98940.25;;;13.35;81.42
18858;BME280;9558;50.178;8.370;2022-07-06T02:36:07;98930.16;;;13.31;81.48
18858;BME280;9558;50.178;8.370;2022-07-06T02:38:34;98932.94;;;13.30;83.75
18858;BME280;9558;50.178;8.370;2022-07-06T02:41:00;98932.94;;;13.30;81.79
18858;BME280;9558;50.178;8.370;2022-07-06T02:43:27;98940.91;;;13.28;81.80
18858;BME280;9558;50.178;8.370;2022-07-06T02:45:54;98939.94;;;13.29;82.54
18858;BME280;9558;50.178;8.370;2022-07-06T02:48:21;98937.50;;;13.28;83.10
18858;BME280;9558;50.178;8.370;2022-07-06T02:50:47;98942.53;;;13.29;84.61
18858;BME280;9558;50.178;8.370;2022-07-06T02:53:14;98944.81;;;13.24;83.14
18858;BME280;9558;50.178;8.370;2022-07-06T02:55:40;98941.25;;;13.25;82.00
18858;BME280;9558;50.178;8.370;2022-07-06T02:58:07;98945.47;;;13.26;81.78
18858;BME280;9558;50.178;8.370;2022-07-06T03:00:33;98949.69;;;13.27;81.80
18858;BME280;9558;50.178;8.370;2022-07-06T03:03:01;98951.31;;;13.28;81.89
18858;BME280;9558;50.178;8.370;2022-07-06T03:05:28;98947.25;;;13.26;82.58
18858;BME280;9558;50.178;8.370;2022-07-06T03:07:54;98956.41;;;13.22;82.07
18858;BME280;9558;50.178;8.370;2022-07-06T03:10:21;98953.16;;;13.20;83.24
18858;BME280;9558;50.178;8.370;2022-07-06T03:12:47;98956.09;;;13.17;83.82
18858;BME280;9558;50.178;8.370;2022-07-06T03:15:14;98955.00;;;13.11;83.45
18858;BME280;9558;50.178;8.370;2022-07-06T03:17:40;98956.63;;;13.12;82.75
18858;BME280;9558;50.178;8.370;2022-07-06T03:20:09;98953.38;;;13.10;84.76
18858;BME280;9558;50.178;8.370;2022-07-06T03:22:35;98960.19;;;13.11;84.95
18858;BME280;9558;50.178;8.370;2022-07-06T03:25:02;98956.28;;;13.15;84.01
18858;BME280;9558;50.178;8.370;2022-07-06T03:27:29;98958.69;;;13.17;82.88
18858;BME280;9558;50.178;8.370;2022-07-06T03:29:55;98971.88;;;13.15;83.43
18858;BME280;9558;50.178;8.370;2022-07-06T03:32:22;98979.50;;;13.17;82.80
18858;BME280;9558;50.178;8.370;2022-07-06T03:34:48;98981.91;;;13.18;83.27
18858;BME280;9558;50.178;8.370;2022-07-06T03:37:16;98978.00;;;13.22;82.68
18858;BME280;9558;50.178;8.370;2022-07-06T03:39:43;98981.22;;;13.24;82.48
18858;BME280;9558;50.178;8.370;2022-07-06T03:42:09;98977.03;;;13.23;83.35
18858;BME280;9558;50.178;8.370;2022-07-06T03:44:36;98977.66;;;13.25;83.22
18858;BME280;9558;50.178;8.370;2022-07-06T03:47:03;98981.03;;;13.26;84.04
18858;BME280;9558;50.178;8.370;2022-07-06T03:49:29;98982.50;;;13.28;82.68
18858;BME280;9558;50.178;8.370;2022-07-06T03:51:56;98991.63;;;13.24;82.27
18858;BME280;9558;50.178;8.370;2022-07-06T03:54:24;98992.63;;;13.23;81.94
18858;BME280;9558;50.178;8.370;2022-07-06T03:56:50;98992.44;;;13.25;82.17
18858;BME280;9558;50.178;8.370;2022-07-06T03:59:17;98986.78;;;13.21;84.46
18858;BME280;9558;50.178;8.370;2022-07-06T04:01:43;99005.94;;;13.20;83.88
18858;BME280;9558;50.178;8.370;2022-07-06T04:04:10;98993.47;;;13.16;85.32
18858;BME280;9558;50.178;8.370;2022-07-06T04:06:36;98990.34;;;13.20;83.50
18858;BME280;9558;50.178;8.370;2022-07-06T04:09:03;98997.16;;;13.21;83.69
18858;BME280;9558;50.178;8.370;2022-07-06T04:11:31;98997.81;;;13.23;84.41
18858;BME280;9558;50.178;8.370;2022-07-06T04:13:58;98999.13;;;13.19;84.96
18858;BME280;9558;50.178;8.370;2022-07-06T04:16:24;98997.50;;;13.18;84.63
18858;BME280;9558;50.178;8.370;2022-07-06T04:18:51;98998.47;;;13.17;84.15
18858;BME280;9558;50.178;8.370;2022-07-06T04:21:17;98998.47;;;13.17;85.56
18858;BME280;9558;50.178;8.370;2022-07-06T04:23:44;99004.97;;;13.21;84.67
18858;BME280;9558;50.178;8.370;2022-07-06T04:26:11;99003.03;;;13.23;84.58
18858;BME280;9558;50.178;8.370;2022-07-06T04:28:39;99011.09;;;13.28;85.20
18858;BME280;9558;50.178;8.370;2022-07-06T04:31:05;99011.41;;;13.34;84.08
18858;BME280;9558;50.178;8.370;2022-07-06T04:33:32;99013.84;;;13.35;84.46
18858;BME280;9558;50.178;8.370;2022-07-06T04:35:58;99015.94;;;13.40;83.74
18858;BME280;9558;50.178;8.370;2022-07-06T04:38:25;99010.72;;;13.40;83.95
18858;BME280;9558;50.178;8.370;2022-07-06T04:40:51;99010.09;;;13.38;84.10
18858;BME280;9558;50.178;8.370;2022-07-06T04:43:18;99012.72;;;13.38;84.35
18858;BME280;9558;50.178;8.370;2022-07-06T04:45:46;99018.53;;;13.40;84.45
18858;BME280;9558;50.178;8.370;2022-07-06T04:48:12;99011.53;;;13.40;83.74
18858;BME280;9558;50.178;8.370;2022-07-06T04:50:39;99014.00;;;13.42;83.48
18858;BME280;9558;50.178;8.370;2022-07-06T04:53:05;99009.94;;;13.39;83.35
18858;BME280;9558;50.178;8.370;2022-07-06T04:55:32;99011.09;;;13.37;83.87
18858;BME280;9558;50.178;8.370;2022-07-06T04:57:58;99014.13;;;13.40;83.12
18858;BME280;9558;50.178;8.370;2022-07-06T05:00:25;99015.59;;;13.43;83.01
18858;BME280;9558;50.178;8.370;2022-07-06T05:02:53;99026.91;;;13.50;83.35
18858;BME280;9558;50.178;8.370;2022-07-06T05:05:20;99016.19;;;13.53;83.62
18858;BME280;9558;50.178;8.370;2022-07-06T05:07:46;99021.03;;;13.56;82.76
18858;BME280;9558;50.178;8.370;2022-07-06T05:10:13;99016.47;;;13.58;83.04
18858;BME280;9558;50.178;8.370;2022-07-06T05:12:39;99014.50;;;13.60;82.73
18858;BME280;9558;50.178;8.370;2022-07-06T05:15:07;99021.66;;;13.58;82.56
18858;BME280;9558;50.178;8.370;2022-07-06T05:17:34;99019.41;;;13.55;83.37
18858;BME280;9558;50.178;8.370;2022-07-06T05:20:02;99023.91;;;13.61;82.65
18858;BME280;9558;50.178;8.370;2022-07-06T05:22:29;99021.31;;;13.61;83.67
18858;BME280;9558;50.178;8.370;2022-07-06T05:24:55;99019.72;;;13.60;82.75
18858;BME280;9558;50.178;8.370;2022-07-06T05:27:22;99009.59;;;13.65;82.78
18858;BME280;9558;50.178;8.370;2022-07-06T05:29:49;99019.19;;;13.65;82.72
18858;BME280;9558;50.178;8.370;2022-07-06T05:32:15;99031.88;;;13.60;83.33
18858;BME280;9558;50.178;8.370;2022-07-06T05:34:42;99016.63;;;13.57;83.75
18858;BME280;9558;50.178;8.370;2022-07-06T05:37:10;99016.09;;;13.61;82.58
18858;BME280;9558;50.178;8.370;2022-07-06T05:39:36;99013.84;;;13.58;83.34
18858;BME280;9558;50.178;8.370;2022-07-06T05:42:04;99013.84;;;13.58;82.98
18858;BME280;9558;50.178;8.370;2022-07-06T05:44:31;99014.66;;;13.59;82.82
18858;BME280;9558;50.178;8.370;2022-07-06T05:46:57;99000.84;;;13.58;82.94
18858;BME280;9558;50.178;8.370;2022-07-06T05:49:44;99004.91;;;13.61;82.92
18858;BME280;9558;50.178;8.370;2022-07-06T05:52:29;99003.75;;;13.63;83.75
18858;BME280;9558;50.178;8.370;2022-07-06T05:54:56;99016.84;;;13.70;83.10
18858;BME280;9558;50.178;8.370;2022-07-06T05:57:22;99018.31;;;13.73;83.16
18858;BME280;9558;50.178;8.370;2022-07-06T05:59:49;99011.78;;;13.77;82.62
18858;BME280;9558;50.178;8.370;2022-07-06T06:02:15;99013.50;;;13.85;82.12
18858;BME280;9558;50.178;8.370;2022-07-06T06:04:42;99017.84;;;13.92;82.20
18858;BME280;9558;50.178;8.370;2022-07-06T06:07:09;99020.38;;;14.00;82.04
18858;BME280;9558;50.178;8.370;2022-07-06T06:09:37;99022.09;;;14.08;82.22
18858;BME280;9558;50.178;8.370;2022-07-06T06:12:03;99025.69;;;14.22;81.37
18858;BME280;9558;50.178;8.370;2022-07-06T06:14:30;99013.59;;;14.44;81.11
18858;BME280;9558;50.178;8.370;2022-07-06T06:16:57;99023.25;;;14.74;80.27
18858;BME280;9558;50.178;8.370;2022-07-06T06:19:24;99018.13;;;15.17;78.54
18858;BME280;9558;50.178;8.370;2022-07-06T06:21:50;99020.91;;;15.73;76.74
18858;BME280;9558;50.178;8.370;2022-07-06T06:24:17;99021.97;;;16.29;74.16
18858;BME280;9558;50.178;8.370;2022-07-06T06:26:45;99023.34;;;16.95;71.23
18858;BME280;9558;50.178;8.370;2022-07-06T06:29:12;99028.13;;;17.47;68.84
18858;BME280;9558;50.178;8.370;2022-07-06T06:31:38;99028.78;;;18.02;66.70
18858;BME280;9558;50.178;8.370;2022-07-06T06:34:05;99034.31;;;18.66;65.56
18858;BME280;9558;50.178;8.370;2022-07-06T06:36:31;99024.19;;;19.28;62.48
18858;BME280;9558;50.178;8.370;2022-07-06T06:38:58;99034.31;;;19.89;60.53
18858;BME280;9558;50.178;8.370;2022-07-06T06:41:25;99028.28;;;20.50;56.85
18858;BME280;9558;50.178;8.370;2022-07-06T06:43:52;99031.06;;;21.11;56.92
18858;BME280;9558;50.178;8.370;2022-07-06T06:46:19;99035.94;;;21.56;54.18
18858;BME280;9558;50.178;8.370;2022-07-06T06:48:45;99043.00;;;21.86;53.67
18858;BME280;9558;50.178;8.370;2022-07-06T06:51:12;99053.88;;;22.14;50.86
18858;BME280;9558;50.178;8.370;2022-07-06T06:53:39;99045.41;;;22.12;49.99
18858;BME280;9558;50.178;8.370;2022-07-06T06:56:06;99055.06;;;22.41;49.37
18858;BME280;9558;50.178;8.370;2022-07-06T06:58:33;99055.81;;;22.66;49.68
18858;BME280;9558;50.178;8.370;2022-07-06T07:01:02;99058.81;;;22.57;47.05
18858;BME280;9558;50.178;8.370;2022-07-06T07:03:29;99064.19;;;22.74;47.69
18858;BME280;9558;50.178;8.370;2022-07-06T07:05:56;99070.47;;;22.85;48.72
18858;BME280;9558;50.178;8.370;2022-07-06T07:08:23;99062.41;;;22.92;47.92
18858;BME280;9558;50.178;8.370;2022-07-06T07:10:49;99063.09;;;23.11;47.50
18858;BME280;9558;50.178;8.370;2022-07-06T07:13:16;99064.41;;;23.25;47.45
18858;BME280;9558;50.178;8.370;2022-07-06T07:15:42;99056.34;;;23.49;45.58
18858;BME280;9558;50.178;8.370;2022-07-06T07:18:10;99059.66;;;23.73;45.31
18858;BME280;9558;50.178;8.370;2022-07-06T07:20:37;99060.53;;;23.91;45.27
18858;BME280;9558;50.178;8.370;2022-07-06T07:23:03;99069.09;;;24.15;44.72
18858;BME280;9558;50.178;8.370;2022-07-06T07:25:30;99067.22;;;24.32;42.78
18858;BME280;9558;50.178;8.370;2022-07-06T07:27:57;99064.28;;;24.68;43.65
18858;BME280;9558;50.178;8.370;2022-07-06T07:30:24;99058.66;;;24.87;41.86
18858;BME280;9558;50.178;8.370;2022-07-06T07:32:50;99063.66;;;25.05;41.74
18858;BME280;9558;50.178;8.370;2022-07-06T07:35:18;99068.88;;;25.22;41.23
18858;BME280;9558;50.178;8.370;2022-07-06T07:37:45;99060.25;;;25.10;41.55
18858;BME280;9558;50.178;8.370;2022-07-06T07:40:11;99056.16;;;25.24;40.33
18858;BME280;9558;50.178;8.370;2022-07-06T07:42:38;99062.72;;;25.16;40.27
18858;BME280;9558;50.178;8.370;2022-07-06T07:45:06;99060.66;;;25.24;39.91
18858;BME280;9558;50.178;8.370;2022-07-06T07:47:32;99058.75;;;25.19;39.34
18858;BME280;9558;50.178;8.370;2022-07-06T07:49:59;99064.88;;;25.47;37.62
18858;BME280;9558;50.178;8.370;2022-07-06T07:52:27;99065.44;;;25.81;38.57
18858;BME280;9558;50.178;8.370;2022-07-06T07:54:54;99059.41;;;25.59;37.79
18858;BME280;9558;50.178;8.370;2022-07-06T07:57:20;99060.41;;;25.85;37.34
18858;BME280;9558;50.178;8.370;2022-07-06T07:59:47;99070.25;;;26.22;37.60
18858;BME280;9558;50.178;8.370;2022-07-06T08:02:13;99068.91;;;26.62;36.20
18858;BME280;9558;50.178;8.370;2022-07-06T08:04:40;99066.41;;;26.98;35.94
18858;BME280;9558;50.178;8.370;2022-07-06T08:07:06;99061.13;;;27.14;33.60
18858;BME280;9558;50.178;8.370;2022-07-06T08:09:34;99060.69;;;27.42;35.14
18858;BME280;9558;50.178;8.370;2022-07-06T08:12:01;99060.41;;;27.80;34.35
18858;BME280;9558;50.178;8.370;2022-07-06T08:14:27;99049.50;;;28.07;33.98
18858;BME280;9558;50.178;8.370;2022-07-06T08:16:54;99047.25;;;28.51;33.52
18858;BME280;9558;50.178;8.370;2022-07-06T08:19:21;99048.44;;;28.89;33.06
18858;BME280;9558;50.178;8.370;2022-07-06T08:21:47;99055.66;;;29.34;32.68
18858;BME280;9558;50.178;8.370;2022-07-06T08:24:14;99056.91;;;29.46;32.06
18858;BME280;9558;50.178;8.370;2022-07-06T08:26:42;99063.41;;;29.70;31.29
18858;BME280;9558;50.178;8.370;2022-07-06T08:29:08;99068.97;;;29.73;31.21
18858;BME280;9558;50.178;8.370;2022-07-06T08:31:35;99063.53;;;29.89;30.10
18858;BME280;9558;50.178;8.370;2022-07-06T08:34:02;99059.84;;;29.79;29.03
18858;BME280;9558;50.178;8.370;2022-07-06T08:36:29;99062.97;;;29.92;29.70
18858;BME280;9558;50.178;8.370;2022-07-06T08:38:56;99067.19;;;30.22;29.93
18858;BME280;9558;50.178;8.370;2022-07-06T08:41:24;99057.44;;;30.12;28.45
18858;BME280;9558;50.178;8.370;2022-07-06T08:43:53;99069.09;;;30.22;29.24
18858;BME280;9558;50.178;8.370;2022-07-06T08:46:20;99074.03;;;30.33;28.90
18858;BME280;9558;50.178;8.370;2022-07-06T08:48:47;99070.94;;;30.50;29.33
18858;BME280;9558;50.178;8.370;2022-07-06T08:51:14;99078.00;;;30.84;28.56
18858;BME280;9558;50.178;8.370;2022-07-06T08:53:42;99069.38;;;31.12;28.53
18858;BME280;9558;50.178;8.370;2022-07-06T08:56:08;99074.06;;;31.39;28.44
18858;BME280;9558;50.178;8.370;2022-07-06T08:58:35;99082.81;;;31.64;27.64
18858;BME280;9558;50.178;8.370;2022-07-06T09:01:09;99074.81;;;31.64;27.89
18858;BME280;9558;50.178;8.370;2022-07-06T09:03:35;99067.34;;;31.61;26.45
18858;BME280;9558;50.178;8.370;2022-07-06T09:06:02;99078.06;;;31.23;26.57
18858;BME280;9558;50.178;8.370;2022-07-06T09:08:31;99079.50;;;30.72;27.27
18858;BME280;9558;50.178;8.370;2022-07-06T09:10:57;99068.53;;;30.92;27.86
18858;BME280;9558;50.178;8.370;2022-07-06T09:13:24;99075.47;;;31.17;27.90
18858;BME280;9558;50.178;8.370;2022-07-06T09:15:51;99075.69;;;31.21;27.70
18858;BME280;9558;50.178;8.370;2022-07-06T09:18:20;99082.31;;;31.05;28.22
18858;BME280;9558;50.178;8.370;2022-07-06T09:20:47;99076.44;;;30.59;28.75
18858;BME280;9558;50.178;8.370;2022-07-06T09:23:16;99074.28;;;29.78;28.09
18858;BME280;9558;50.178;8.370;2022-07-06T09:25:47;99078.38;;;29.21;29.39
18858;BME280;9558;50.178;8.370;2022-07-06T09:28:14;99074.84;;;28.81;30.27
18858;BME280;9558;50.178;8.370;2022-07-06T09:30:40;99078.69;;;28.43;31.01
18858;BME280;9558;50.178;8.370;2022-07-06T09:33:08;99062.81;;;28.13;31.00
18858;BME280;9558;50.178;8.370;2022-07-06T09:35:38;99063.88;;;27.75;32.20
18858;BME280;9558;50.178;8.370;2022-07-06T09:38:06;99064.13;;;27.48;32.98
18858;BME280;9558;50.178;8.370;2022-07-06T09:40:34;99067.50;;;27.18;32.92
18858;BME280;9558;50.178;8.370;2022-07-06T09:43:13;99073.81;;;26.96;33.77
18858;BME280;9558;50.178;8.370;2022-07-06T09:45:41;99076.03;;;26.62;33.58
18858;BME280;9558;50.178;8.370;2022-07-06T09:48:13;99064.66;;;26.18;34.29
18858;BME280;9558;50.178;8.370;2022-07-06T09:50:46;99073.13;;;25.83;35.02
18858;BME280;9558;50.178;8.370;2022-07-06T09:53:13;99080.38;;;25.33;34.99
18858;BME280;9558;50.178;8.370;2022-07-06T09:55:43;99078.81;;;25.15;35.71
18858;BME280;9558;50.178;8.370;2022-07-06T09:58:09;99090.53;;;24.75;35.31
18858;BME280;9558;50.178;8.370;2022-07-06T10:00:36;99080.25;;;24.39;36.19
18858;BME280;9558;50.178;8.370;2022-07-06T10:03:04;99073.81;;;24.13;36.93
18858;BME280;9558;50.178;8.370;2022-07-06T10:05:31;99070.56;;;23.77;37.46
18858;BME280;9558;50.178;8.370;2022-07-06T10:08:00;99066.91;;;23.49;37.27
18858;BME280;9558;50.178;8.370;2022-07-06T10:10:28;99064.09;;;23.10;38.39
18858;BME280;9558;50.178;8.370;2022-07-06T10:12:56;99062.75;;;22.95;38.77
18858;BME280;9558;50.178;8.370;2022-07-06T10:15:24;99074.09;;;22.96;39.76
18858;BME280;9558;50.178;8.370;2022-07-06T10:17:51;99071.03;;;22.87;39.64
18858;BME280;9558;50.178;8.370;2022-07-06T10:20:19;99075.63;;;22.80;40.01
18858;BME280;9558;50.178;8.370;2022-07-06T10:22:46;99066.06;;;22.62;39.70
18858;BME280;9558;50.178;8.370;2022-07-06T10:25:15;99066.63;;;22.52;39.88
18858;BME280;9558;50.178;8.370;2022-07-06T10:27:43;99067.53;;;22.46;40.21
18858;BME280;9558;50.178;8.370;2022-07-06T10:30:11;99077.88;;;22.36;40.75
18858;BME280;9558;50.178;8.370;2022-07-06T10:32:39;99061.91;;;22.31;40.65
18858;BME280;9558;50.178;8.370;2022-07-06T10:35:07;99060.66;;;22.33;40.24
18858;BME280;9558;50.178;8.370;2022-07-06T10:37:34;99071.41;;;22.32;41.17
18858;BME280;9558;50.178;8.370;2022-07-06T10:40:01;99063.50;;;22.20;40.74
18858;BME280;9558;50.178;8.370;2022-07-06T10:42:47;99062.25;;;22.22;41.00
18858;BME280;9558;50.178;8.370;2022-07-06T10:45:20;99075.09;;;22.31;41.12
18858;BME280;9558;50.178;8.370;2022-07-06T10:48:16;99063.28;;;22.21;40.30
18858;BME280;9558;50.178;8.370;2022-07-06T10:50:47;99067.63;;;22.27;40.49
18858;BME280;9558;50.178;8.370;2022-07-06T10:53:15;99072.81;;;22.22;39.79
18858;BME280;9558;50.178;8.370;2022-07-06T10:55:44;99063.28;;;22.21;40.14
18858;BME280;9558;50.178;8.370;2022-07-06T10:58:13;99057.91;;;22.28;40.57
18858;BME280;9558;50.178;8.370;2022-07-06T11:00:50;99056.91;;;22.41;40.84
18858;BME280;9558;50.178;8.370;2022-07-06T11:03:30;99066.38;;;22.42;39.67
18858;BME280;9558;50.178;8.370;2022-07-06T11:05:57;99057.56;;;22.48;39.73
18858;BME280;9558;50.178;8.370;2022-07-06T11:08:41;99061.03;;;22.37;39.10
18858;BME280;9558;50.178;8.370;2022-07-06T11:11:10;99049.63;;;22.24;39.66
18858;BME280;9558;50.178;8.370;2022-07-06T11:13:47;99059.16;;;22.25;39.95
18858;BME280;9558;50.178;8.370;2022-07-06T11:16:14;99053.88;;;22.25;40.61
18858;BME280;9558;50.178;8.370;2022-07-06T11:18:41;99056.84;;;22.29;40.49
18858;BME280;9558;50.178;8.370;2022-07-06T11:21:16;99056.06;;;22.29;39.94
18858;BME280;9558;50.178;8.370;2022-07-06T11:23:45;99063.75;;;22.30;40.42
18858;BME280;9558;50.178;8.370;2022-07-06T11:26:13;99064.69;;;22.36;40.12
18858;BME280;9558;50.178;8.370;2022-07-06T11:28:39;99063.06;;;22.35;40.20
18858;BME280;9558;50.178;8.370;2022-07-06T11:31:07;99056.06;;;22.29;39.48
18858;BME280;9558;50.178;8.370;2022-07-06T11:33:34;99047.00;;;22.24;39.86
18858;BME280;9558;50.178;8.370;2022-07-06T11:36:14;99055.25;;;22.28;40.43
18858;BME280;9558;50.178;8.370;2022-07-06T11:38:41;99049.31;;;22.21;39.94
18858;BME280;9558;50.178;8.370;2022-07-06T11:41:08;99056.75;;;22.12;39.76
18858;BME280;9558;50.178;8.370;2022-07-06T11:43:35;99051.22;;;22.02;40.10
18858;BME280;9558;50.178;8.370;2022-07-06T11:46:03;99048.84;;;22.12;41.01
18858;BME280;9558;50.178;8.370;2022-07-06T11:48:31;99045.63;;;22.22;40.61
18858;BME280;9558;50.178;8.370;2022-07-06T11:50:58;99044.72;;;22.28;40.19
18858;BME280;9558;50.178;8.370;2022-07-06T11:53:25;99050.31;;;22.32;39.80
18858;BME280;9558;50.178;8.370;2022-07-06T11:55:52;99048.41;;;22.51;40.25
18858;BME280;9558;50.178;8.370;2022-07-06T11:58:20;99047.44;;;22.69;40.49
18858;BME280;9558;50.178;8.370;2022-07-06T12:01:03;99038.97;;;22.67;38.30
18858;BME280;9558;50.178;8.370;2022-07-06T12:03:30;99041.59;;;22.67;39.06
18858;BME280;9558;50.178;8.370;2022-07-06T12:05:58;99033.22;;;22.70;40.01
18858;BME280;9558;50.178;8.370;2022-07-06T12:08:24;99040.94;;;22.59;39.59
18858;BME280;9558;50.178;8.370;2022-07-06T12:10:51;99032.44;;;22.57;40.97
18858;BME280;9558;50.178;8.370;2022-07-06T12:13:19;99037.50;;;22.47;40.69
18858;BME280;9558;50.178;8.370;2022-07-06T12:15:45;99033.63;;;22.38;40.37
18858;BME280;9558;50.178;8.370;2022-07-06T12:18:12;99031.41;;;22.35;40.82
18858;BME280;9558;50.178;8.370;2022-07-06T12:20:40;99033.81;;;22.24;40.80
18858;BME280;9558;50.178;8.370;2022-07-06T12:23:07;99025.59;;;22.33;40.71
18858;BME280;9558;50.178;8.370;2022-07-06T12:25:35;99023.31;;;22.36;40.88
18858;BME280;9558;50.178;8.370;2022-07-06T12:28:03;99026.28;;;22.40;40.80
18858;BME280;9558;50.178;8.370;2022-07-06T12:30:30;99023.88;;;22.38;39.78
18858;BME280;9558;50.178;8.370;2022-07-06T12:33:13;99038.97;;;22.31;40.08
18858;BME280;9558;50.178;8.370;2022-07-06T12:35:41;99027.19;;;22.34;40.17
18858;BME280;9558;50.178;8.370;2022-07-06T12:38:08;99030.94;;;22.26;40.74
18858;BME280;9558;50.178;8.370;2022-07-06T12:40:36;99038.75;;;22.21;39.95
18858;BME280;9558;50.178;8.370;2022-07-06T12:43:03;99024.41;;;22.29;40.30
18858;BME280;9558;50.178;8.370;2022-07-06T12:45:31;99020.66;;;22.36;41.75
18858;BME280;9558;50.178;8.370;2022-07-06T12:47:58;99027.19;;;22.34;40.76
18858;BME280;9558;50.178;8.370;2022-07-06T12:50:32;99023.50;;;22.35;40.46
18858;BME280;9558;50.178;8.370;2022-07-06T12:53:01;99030.88;;;22.33;40.61
18858;BME280;9558;50.178;8.370;2022-07-06T12:55:29;99036.69;;;22.35;40.32
18858;BME280;9558;50.178;8.370;2022-07-06T12:57:57;99039.66;;;22.15;40.12
18858;BME280;9558;50.178;8.370;2022-07-06T13:00:24;99036.56;;;22.06;40.06
18858;BME280;9558;50.178;8.370;2022-07-06T13:02:52;99035.41;;;21.90;40.73
18858;BME280;9558;50.178;8.370;2022-07-06T13:05:25;99028.44;;;21.84;40.29
18858;BME280;9558;50.178;8.370;2022-07-06T13:07:54;99015.34;;;21.65;39.56
18858;BME280;9558;50.178;8.370;2022-07-06T13:10:24;99023.19;;;21.53;39.93
18858;BME280;9558;50.178;8.370;2022-07-06T13:12:51;99020.06;;;21.45;40.31